sensor_id;sensor_type;location;lat;lon;timestamp;P1;durP1;ratioP1;P2;durP2;ratioP2
43160;SDS011;40968;52.342;5.528;2023-07-31T00:01:19;9.13;;;1.55;;
43160;SDS011;40968;52.342;5.528;2023-07-31T00:03:46;2.30;;;1.20;;
43160;SDS011;40968;52.342;5.528;2023-07-31T00:06:12;2.25;;;1.23;;
43160;SDS011;40968;52.342;5.528;2023-07-31T00:08:39;2.35;;;1.25;;
43160;SDS011;40968;52.342;5.528;2023-07-31T00:11:07;4.32;;;1.30;;
43160;SDS011;40968;52.342;5.528;2023-07-31T00:13:34;3.75;;;1.10;;
43160;SDS011;40968;52.342;5.528;2023-07-31T00:16:01;4.20;;;1.38;;
43160;SDS011;40968;52.342;5.528;2023-07-31T00:18:28;3.75;;;1.10;;
43160;SDS011;40968;52.342;5.528;2023-07-31T00:20:55;4.57;;;1.10;;
43160;SDS011;40968;52.342;5.528;2023-07-31T00:23:22;2.72;;;1.15;;
43160;SDS011;40968;52.342;5.528;2023-07-31T00:25:48;1.50;;;1.10;;
43160;SDS011;40968;52.342;5.528;2023-07-31T00:28:16;3.17;;;1.25;;
43160;SDS011;40968;52.342;5.528;2023-07-31T00:30:43;3.13;;;1.38;;
43160;SDS011;40968;52.342;5.528;2023-07-31T00:33:09;2.80;;;1.40;;
43160;SDS011;40968;52.342;5.528;2023-07-31T00:35:36;1.92;;;1.10;;
43160;SDS011;40968;52.342;5.528;2023-07-31T00:38:03;4.20;;;1.42;;
43160;SDS011;40968;52.342;5.528;2023-07-31T00:40:30;4.20;;;1.52;;
43160;SDS011;40968;52.342;5.528;2023-07-31T00:43:00;4.28;;;1.40;;
43160;SDS011;40968;52.342;5.528;2023-07-31T00:45:29;3.55;;;1.60;;
43160;SDS011;40968;52.342;5.528;2023-07-31T00:47:57;4.47;;;1.60;;
43160;SDS011;40968;52.342;5.528;2023-07-31T00:50:25;6.50;;;1.77;;
43160;SDS011;40968;52.342;5.528;2023-07-31T00:52:51;6.88;;;1.90;;
43160;SDS011;40968;52.342;5.528;2023-07-31T00:55:18;5.72;;;2.08;;
43160;SDS011;40968;52.342;5.528;2023-07-31T00:57:46;9.65;;;1.83;;
43160;SDS011;40968;52.342;5.528;2023-07-31T01:00:14;7.40;;;2.00;;
43160;SDS011;40968;52.342;5.528;2023-07-31T01:02:42;6.55;;;2.20;;
43160;SDS011;40968;52.342;5.528;2023-07-31T01:05:09;8.43;;;2.58;;
43160;SDS011;40968;52.342;5.528;2023-07-31T01:07:39;8.27;;;2.65;;
43160;SDS011;40968;52.342;5.528;2023-07-31T01:10:14;11.07;;;2.72;;
43160;SDS011;40968;52.342;5.528;2023-07-31T01:12:45;9.35;;;2.40;;
43160;SDS011;40968;52.342;5.528;2023-07-31T01:15:12;7.78;;;2.17;;
43160;SDS011;40968;52.342;5.528;2023-07-31T01:17:41;8.55;;;2.35;;
43160;SDS011;40968;52.342;5.528;2023-07-31T01:20:10;9.25;;;2.55;;
43160;SDS011;40968;52.342;5.528;2023-07-31T01:25:56;8.32;;;2.65;;
43160;SDS011;40968;52.342;5.528;2023-07-31T01:28:33;7.80;;;2.70;;
43160;SDS011;40968;52.342;5.528;2023-07-31T01:31:06;11.43;;;2.90;;
43160;SDS011;40968;52.342;5.528;2023-07-31T01:33:36;9.20;;;3.05;;
43160;SDS011;40968;52.342;5.528;2023-07-31T01:36:03;7.97;;;2.53;;
43160;SDS011;40968;52.342;5.528;2023-07-31T01:38:31;11.90;;;2.83;;
43160;SDS011;40968;52.342;5.528;2023-07-31T01:40:59;7.50;;;2.30;;
43160;SDS011;40968;52.342;5.528;2023-07-31T01:43:25;12.82;;;3.38;;
43160;SDS011;40968;52.342;5.528;2023-07-31T01:45:52;13.82;;;3.53;;
43160;SDS011;40968;52.342;5.528;2023-07-31T01:48:19;10.10;;;3.28;;
43160;SDS011;40968;52.342;5.528;2023-07-31T01:50:46;16.25;;;4.18;;
43160;SDS011;40968;52.342;5.528;2023-07-31T01:53:12;20.55;;;5.03;;
43160;SDS011;40968;52.342;5.528;2023-07-31T01:55:39;21.77;;;4.72;;
43160;SDS011;40968;52.342;5.528;2023-07-31T01:58:07;23.83;;;5.28;;
43160;SDS011;40968;52.342;5.528;2023-07-31T02:00:34;15.02;;;4.05;;
43160;SDS011;40968;52.342;5.528;2023-07-31T02:03:01;25.73;;;5.20;;
43160;SDS011;40968;52.342;5.528;2023-07-31T02:05:27;19.00;;;4.95;;
43160;SDS011;40968;52.342;5.528;2023-07-31T02:07:54;17.65;;;5.13;;
43160;SDS011;40968;52.342;5.528;2023-07-31T02:10:21;20.80;;;6.03;;
43160;SDS011;40968;52.342;5.528;2023-07-31T02:12:47;27.48;;;6.00;;
43160;SDS011;40968;52.342;5.528;2023-07-31T02:15:15;20.48;;;5.85;;
43160;SDS011;40968;52.342;5.528;2023-07-31T02:17:42;30.35;;;5.70;;
43160;SDS011;40968;52.342;5.528;2023-07-31T02:20:09;28.02;;;5.75;;
43160;SDS011;40968;52.342;5.528;2023-07-31T02:22:36;20.00;;;6.25;;
43160;SDS011;40968;52.342;5.528;2023-07-31T02:25:03;19.42;;;5.72;;
43160;SDS011;40968;52.342;5.528;2023-07-31T02:27:30;23.15;;;6.15;;
43160;SDS011;40968;52.342;5.528;2023-07-31T02:29:57;25.92;;;6.20;;
43160;SDS011;40968;52.342;5.528;2023-07-31T02:32:25;20.70;;;5.65;;
43160;SDS011;40968;52.342;5.528;2023-07-31T02:34:52;25.05;;;6.60;;
43160;SDS011;40968;52.342;5.528;2023-07-31T02:37:19;30.35;;;6.68;;
43160;SDS011;40968;52.342;5.528;2023-07-31T02:39:46;31.52;;;7.40;;
43160;SDS011;40968;52.342;5.528;2023-07-31T02:42:12;28.67;;;7.72;;
43160;SDS011;40968;52.342;5.528;2023-07-31T02:44:39;28.10;;;7.80;;
43160;SDS011;40968;52.342;5.528;2023-07-31T02:47:06;34.15;;;8.38;;
43160;SDS011;40968;52.342;5.528;2023-07-31T02:49:34;35.28;;;8.70;;
43160;SDS011;40968;52.342;5.528;2023-07-31T02:52:00;44.30;;;9.45;;
43160;SDS011;40968;52.342;5.528;2023-07-31T02:54:27;40.70;;;9.77;;
43160;SDS011;40968;52.342;5.528;2023-07-31T02:56:54;37.70;;;8.85;;
43160;SDS011;40968;52.342;5.528;2023-07-31T02:59:20;46.20;;;9.80;;
43160;SDS011;40968;52.342;5.528;2023-07-31T03:01:47;39.67;;;9.82;;
43160;SDS011;40968;52.342;5.528;2023-07-31T03:04:14;45.22;;;10.93;;
43160;SDS011;40968;52.342;5.528;2023-07-31T03:06:42;44.05;;;10.20;;
43160;SDS011;40968;52.342;5.528;2023-07-31T03:09:08;46.17;;;11.70;;
43160;SDS011;40968;52.342;5.528;2023-07-31T03:11:35;39.55;;;10.45;;
43160;SDS011;40968;52.342;5.528;2023-07-31T03:14:01;41.95;;;10.27;;
43160;SDS011;40968;52.342;5.528;2023-07-31T03:16:28;46.50;;;10.75;;
43160;SDS011;40968;52.342;5.528;2023-07-31T03:18:55;43.58;;;9.63;;
43160;SDS011;40968;52.342;5.528;2023-07-31T03:21:22;41.08;;;9.45;;
43160;SDS011;40968;52.342;5.528;2023-07-31T03:23:50;45.22;;;9.95;;
43160;SDS011;40968;52.342;5.528;2023-07-31T03:26:17;47.15;;;10.32;;
43160;SDS011;40968;52.342;5.528;2023-07-31T03:28:44;41.13;;;10.70;;
43160;SDS011;40968;52.342;5.528;2023-07-31T03:31:10;37.97;;;10.18;;
43160;SDS011;40968;52.342;5.528;2023-07-31T03:33:37;49.58;;;10.20;;
43160;SDS011;40968;52.342;5.528;2023-07-31T03:36:04;43.00;;;9.95;;
43160;SDS011;40968;52.342;5.528;2023-07-31T03:38:33;39.33;;;10.15;;
43160;SDS011;40968;52.342;5.528;2023-07-31T03:41:01;44.88;;;10.63;;
43160;SDS011;40968;52.342;5.528;2023-07-31T03:43:28;43.38;;;10.75;;
43160;SDS011;40968;52.342;5.528;2023-07-31T03:45:54;59.70;;;10.38;;
43160;SDS011;40968;52.342;5.528;2023-07-31T03:48:21;53.45;;;10.48;;
43160;SDS011;40968;52.342;5.528;2023-07-31T03:50:48;47.83;;;10.50;;
43160;SDS011;40968;52.342;5.528;2023-07-31T03:53:14;49.47;;;10.70;;
43160;SDS011;40968;52.342;5.528;2023-07-31T03:55:41;52.70;;;10.68;;
43160;SDS011;40968;52.342;5.528;2023-07-31T03:58:09;41.25;;;10.52;;
43160;SDS011;40968;52.342;5.528;2023-07-31T04:00:36;42.60;;;9.95;;
43160;SDS011;40968;52.342;5.528;2023-07-31T04:03:02;45.17;;;11.27;;
43160;SDS011;40968;52.342;5.528;2023-07-31T04:05:29;43.20;;;10.32;;
43160;SDS011;40968;52.342;5.528;2023-07-31T04:07:56;41.60;;;9.65;;
43160;SDS011;40968;52.342;5.528;2023-07-31T04:10:23;45.72;;;10.45;;
43160;SDS011;40968;52.342;5.528;2023-07-31T04:12:49;36.50;;;9.73;;
43160;SDS011;40968;52.342;5.528;2023-07-31T04:15:17;43.28;;;10.02;;
43160;SDS011;40968;52.342;5.528;2023-07-31T04:17:44;34.15;;;9.68;;
43160;SDS011;40968;52.342;5.528;2023-07-31T04:20:11;47.65;;;10.02;;
43160;SDS011;40968;52.342;5.528;2023-07-31T04:22:38;50.05;;;11.02;;
43160;SDS011;40968;52.342;5.528;2023-07-31T04:25:05;40.55;;;9.90;;
43160;SDS011;40968;52.342;5.528;2023-07-31T04:27:32;44.03;;;9.77;;
43160;SDS011;40968;52.342;5.528;2023-07-31T04:29:58;39.88;;;10.50;;
43160;SDS011;40968;52.342;5.528;2023-07-31T04:32:26;42.08;;;11.00;;
43160;SDS011;40968;52.342;5.528;2023-07-31T04:34:54;42.72;;;10.05;;
43160;SDS011;40968;52.342;5.528;2023-07-31T04:37:21;50.65;;;9.57;;
43160;SDS011;40968;52.342;5.528;2023-07-31T04:39:48;44.33;;;10.50;;
43160;SDS011;40968;52.342;5.528;2023-07-31T04:42:14;44.70;;;11.35;;
43160;SDS011;40968;52.342;5.528;2023-07-31T04:44:41;41.03;;;10.50;;
43160;SDS011;40968;52.342;5.528;2023-07-31T04:47:08;37.33;;;9.75;;
43160;SDS011;40968;52.342;5.528;2023-07-31T04:49:36;46.13;;;10.50;;
43160;SDS011;40968;52.342;5.528;2023-07-31T04:52:03;52.55;;;11.30;;
43160;SDS011;40968;52.342;5.528;2023-07-31T04:54:30;55.63;;;10.73;;
43160;SDS011;40968;52.342;5.528;2023-07-31T04:56:57;39.10;;;10.18;;
43160;SDS011;40968;52.342;5.528;2023-07-31T04:59:23;47.28;;;10.75;;
43160;SDS011;40968;52.342;5.528;2023-07-31T05:01:50;55.78;;;11.65;;
43160;SDS011;40968;52.342;5.528;2023-07-31T05:04:16;39.55;;;9.77;;
43160;SDS011;40968;52.342;5.528;2023-07-31T05:06:44;39.78;;;10.05;;
43160;SDS011;40968;52.342;5.528;2023-07-31T05:09:11;43.13;;;10.30;;
43160;SDS011;40968;52.342;5.528;2023-07-31T05:11:38;38.78;;;10.50;;
43160;SDS011;40968;52.342;5.528;2023-07-31T05:14:05;32.78;;;9.30;;
43160;SDS011;40968;52.342;5.528;2023-07-31T05:16:32;30.38;;;8.82;;
43160;SDS011;40968;52.342;5.528;2023-07-31T05:18:59;34.95;;;9.57;;
43160;SDS011;40968;52.342;5.528;2023-07-31T05:21:26;35.92;;;8.57;;
43160;SDS011;40968;52.342;5.528;2023-07-31T05:23:54;35.28;;;9.15;;
43160;SDS011;40968;52.342;5.528;2023-07-31T05:26:20;32.08;;;8.30;;
43160;SDS011;40968;52.342;5.528;2023-07-31T05:28:47;35.20;;;8.43;;
43160;SDS011;40968;52.342;5.528;2023-07-31T05:31:14;23.83;;;7.70;;
43160;SDS011;40968;52.342;5.528;2023-07-31T05:33:41;23.25;;;7.25;;
43160;SDS011;40968;52.342;5.528;2023-07-31T05:36:07;25.58;;;7.22;;
43160;SDS011;40968;52.342;5.528;2023-07-31T05:38:34;27.58;;;7.22;;
43160;SDS011;40968;52.342;5.528;2023-07-31T05:41:03;21.98;;;6.18;;
43160;SDS011;40968;52.342;5.528;2023-07-31T05:43:30;20.70;;;5.97;;
43160;SDS011;40968;52.342;5.528;2023-07-31T05:45:56;15.95;;;5.20;;
43160;SDS011;40968;52.342;5.528;2023-07-31T05:48:23;45.33;;;8.45;;
43160;SDS011;40968;52.342;5.528;2023-07-31T05:50:50;21.95;;;6.22;;
43160;SDS011;40968;52.342;5.528;2023-07-31T05:53:16;21.35;;;5.40;;
43160;SDS011;40968;52.342;5.528;2023-07-31T05:55:43;17.40;;;5.32;;
43160;SDS011;40968;52.342;5.528;2023-07-31T05:58:11;21.52;;;6.15;;
43160;SDS011;40968;52.342;5.528;2023-07-31T06:00:38;11.93;;;4.55;;
43160;SDS011;40968;52.342;5.528;2023-07-31T06:03:06;11.05;;;4.63;;
43160;SDS011;40968;52.342;5.528;2023-07-31T06:05:32;15.93;;;4.18;;
43160;SDS011;40968;52.342;5.528;2023-07-31T06:07:59;16.05;;;4.05;;
43160;SDS011;40968;52.342;5.528;2023-07-31T06:10:27;14.38;;;3.95;;
43160;SDS011;40968;52.342;5.528;2023-07-31T06:12:54;13.52;;;4.82;;
43160;SDS011;40968;52.342;5.528;2023-07-31T06:15:23;21.88;;;5.53;;
43160;SDS011;40968;52.342;5.528;2023-07-31T06:17:50;15.30;;;4.40;;
43160;SDS011;40968;52.342;5.528;2023-07-31T06:20:17;18.23;;;3.90;;
43160;SDS011;40968;52.342;5.528;2023-07-31T06:22:44;17.10;;;3.85;;
43160;SDS011;40968;52.342;5.528;2023-07-31T06:25:11;11.27;;;3.60;;
43160;SDS011;40968;52.342;5.528;2023-07-31T06:27:38;11.18;;;4.38;;
43160;SDS011;40968;52.342;5.528;2023-07-31T06:30:05;6.55;;;3.10;;
43160;SDS011;40968;52.342;5.528;2023-07-31T06:32:34;12.02;;;3.97;;
43160;SDS011;40968;52.342;5.528;2023-07-31T06:35:01;10.63;;;3.45;;
43160;SDS011;40968;52.342;5.528;2023-07-31T06:37:27;14.82;;;4.22;;
43160;SDS011;40968;52.342;5.528;2023-07-31T06:39:54;9.52;;;3.88;;
43160;SDS011;40968;52.342;5.528;2023-07-31T06:42:21;11.68;;;3.65;;
43160;SDS011;40968;52.342;5.528;2023-07-31T06:44:47;15.73;;;4.25;;
43160;SDS011;40968;52.342;5.528;2023-07-31T06:47:14;12.88;;;3.83;;
43160;SDS011;40968;52.342;5.528;2023-07-31T06:49:42;15.02;;;3.92;;
43160;SDS011;40968;52.342;5.528;2023-07-31T06:52:09;11.20;;;4.00;;
43160;SDS011;40968;52.342;5.528;2023-07-31T06:54:36;13.70;;;4.70;;
43160;SDS011;40968;52.342;5.528;2023-07-31T06:57:03;10.10;;;3.80;;
43160;SDS011;40968;52.342;5.528;2023-07-31T06:59:31;12.43;;;4.18;;
43160;SDS011;40968;52.342;5.528;2023-07-31T07:01:58;10.90;;;4.10;;
43160;SDS011;40968;52.342;5.528;2023-07-31T07:04:24;21.73;;;4.95;;
43160;SDS011;40968;52.342;5.528;2023-07-31T07:06:53;15.27;;;5.07;;
43160;SDS011;40968;52.342;5.528;2023-07-31T07:09:19;11.02;;;4.70;;
43160;SDS011;40968;52.342;5.528;2023-07-31T07:11:46;14.10;;;4.00;;
43160;SDS011;40968;52.342;5.528;2023-07-31T07:14:13;12.75;;;4.10;;
43160;SDS011;40968;52.342;5.528;2023-07-31T07:16:39;13.20;;;3.90;;
43160;SDS011;40968;52.342;5.528;2023-07-31T07:19:07;11.98;;;3.83;;
43160;SDS011;40968;52.342;5.528;2023-07-31T07:21:33;13.38;;;4.15;;
43160;SDS011;40968;52.342;5.528;2023-07-31T07:24:02;9.23;;;3.63;;
43160;SDS011;40968;52.342;5.528;2023-07-31T07:26:29;9.18;;;3.83;;
43160;SDS011;40968;52.342;5.528;2023-07-31T07:28:55;10.73;;;3.88;;
43160;SDS011;40968;52.342;5.528;2023-07-31T07:31:22;11.60;;;3.13;;
43160;SDS011;40968;52.342;5.528;2023-07-31T07:33:49;7.45;;;3.15;;
43160;SDS011;40968;52.342;5.528;2023-07-31T07:36:16;5.50;;;2.70;;
43160;SDS011;40968;52.342;5.528;2023-07-31T07:38:43;7.93;;;2.70;;
43160;SDS011;40968;52.342;5.528;2023-07-31T07:41:11;7.53;;;2.85;;
43160;SDS011;40968;52.342;5.528;2023-07-31T07:43:38;7.20;;;2.58;;
43160;SDS011;40968;52.342;5.528;2023-07-31T07:46:04;9.52;;;2.83;;
43160;SDS011;40968;52.342;5.528;2023-07-31T07:48:31;4.95;;;2.20;;
43160;SDS011;40968;52.342;5.528;2023-07-31T07:50:58;7.07;;;2.33;;
43160;SDS011;40968;52.342;5.528;2023-07-31T07:53:24;6.05;;;2.10;;
43160;SDS011;40968;52.342;5.528;2023-07-31T07:55:51;7.13;;;1.95;;
43160;SDS011;40968;52.342;5.528;2023-07-31T07:58:19;7.30;;;2.05;;
43160;SDS011;40968;52.342;5.528;2023-07-31T08:00:48;6.47;;;2.40;;
43160;SDS011;40968;52.342;5.528;2023-07-31T08:03:16;8.75;;;2.33;;
43160;SDS011;40968;52.342;5.528;2023-07-31T08:05:43;4.55;;;2.05;;
43160;SDS011;40968;52.342;5.528;2023-07-31T08:08:13;3.15;;;1.70;;
43160;SDS011;40968;52.342;5.528;2023-07-31T08:10:41;4.28;;;1.83;;
43160;SDS011;40968;52.342;5.528;2023-07-31T08:13:07;4.65;;;1.77;;
43160;SDS011;40968;52.342;5.528;2023-07-31T08:15:36;8.65;;;2.63;;
43160;SDS011;40968;52.342;5.528;2023-07-31T08:18:03;6.15;;;1.52;;
43160;SDS011;40968;52.342;5.528;2023-07-31T08:20:30;6.30;;;1.85;;
43160;SDS011;40968;52.342;5.528;2023-07-31T08:22:56;4.50;;;1.70;;
43160;SDS011;40968;52.342;5.528;2023-07-31T08:25:23;3.50;;;1.48;;
43160;SDS011;40968;52.342;5.528;2023-07-31T08:27:50;9.70;;;1.77;;
43160;SDS011;40968;52.342;5.528;2023-07-31T08:30:18;5.85;;;1.98;;
43160;SDS011;40968;52.342;5.528;2023-07-31T08:32:46;3.72;;;1.42;;
43160;SDS011;40968;52.342;5.528;2023-07-31T08:35:13;3.78;;;1.35;;
43160;SDS011;40968;52.342;5.528;2023-07-31T08:37:40;3.10;;;1.60;;
43160;SDS011;40968;52.342;5.528;2023-07-31T08:40:07;4.32;;;1.60;;
43160;SDS011;40968;52.342;5.528;2023-07-31T08:42:41;3.55;;;1.50;;
43160;SDS011;40968;52.342;5.528;2023-07-31T08:45:11;3.53;;;1.70;;
43160;SDS011;40968;52.342;5.528;2023-07-31T08:47:40;5.77;;;1.53;;
43160;SDS011;40968;52.342;5.528;2023-07-31T08:50:10;2.92;;;1.42;;
43160;SDS011;40968;52.342;5.528;2023-07-31T08:52:38;3.75;;;1.50;;
43160;SDS011;40968;52.342;5.528;2023-07-31T08:55:05;2.97;;;1.58;;
43160;SDS011;40968;52.342;5.528;2023-07-31T08:57:34;3.42;;;1.70;;
43160;SDS011;40968;52.342;5.528;2023-07-31T09:00:02;3.45;;;1.63;;
43160;SDS011;40968;52.342;5.528;2023-07-31T09:02:31;4.13;;;1.40;;
43160;SDS011;40968;52.342;5.528;2023-07-31T09:05:04;2.33;;;1.30;;
43160;SDS011;40968;52.342;5.528;2023-07-31T09:07:34;4.22;;;1.52;;
43160;SDS011;40968;52.342;5.528;2023-07-31T09:10:01;4.38;;;1.58;;
43160;SDS011;40968;52.342;5.528;2023-07-31T09:12:28;4.10;;;1.35;;
43160;SDS011;40968;52.342;5.528;2023-07-31T09:14:55;2.05;;;1.17;;
43160;SDS011;40968;52.342;5.528;2023-07-31T09:17:28;3.65;;;1.42;;
43160;SDS011;40968;52.342;5.528;2023-07-31T09:19:56;3.72;;;1.67;;
43160;SDS011;40968;52.342;5.528;2023-07-31T09:22:31;2.60;;;1.33;;
43160;SDS011;40968;52.342;5.528;2023-07-31T09:25:05;3.95;;;1.20;;
43160;SDS011;40968;52.342;5.528;2023-07-31T09:27:45;2.45;;;1.50;;
43160;SDS011;40968;52.342;5.528;2023-07-31T09:30:12;2.38;;;1.25;;
43160;SDS011;40968;52.342;5.528;2023-07-31T09:32:39;2.72;;;1.33;;
43160;SDS011;40968;52.342;5.528;2023-07-31T09:35:12;2.15;;;1.20;;
43160;SDS011;40968;52.342;5.528;2023-07-31T09:37:44;2.40;;;1.13;;
43160;SDS011;40968;52.342;5.528;2023-07-31T09:40:25;1.70;;;1.02;;
43160;SDS011;40968;52.342;5.528;2023-07-31T09:42:53;1.77;;;1.10;;
43160;SDS011;40968;52.342;5.528;2023-07-31T09:45:22;3.30;;;1.30;;
43160;SDS011;40968;52.342;5.528;2023-07-31T09:47:49;2.83;;;1.10;;
43160;SDS011;40968;52.342;5.528;2023-07-31T09:50:23;1.73;;;1.02;;
43160;SDS011;40968;52.342;5.528;2023-07-31T09:52:54;1.95;;;1.17;;
43160;SDS011;40968;52.342;5.528;2023-07-31T09:55:33;2.65;;;1.60;;
43160;SDS011;40968;52.342;5.528;2023-07-31T09:58:07;2.55;;;1.15;;
43160;SDS011;40968;52.342;5.528;2023-07-31T10:00:41;2.17;;;1.02;;
43160;SDS011;40968;52.342;5.528;2023-07-31T10:03:22;2.53;;;1.35;;
43160;SDS011;40968;52.342;5.528;2023-07-31T10:06:06;5.80;;;1.70;;
43160;SDS011;40968;52.342;5.528;2023-07-31T10:08:50;2.33;;;1.55;;
43160;SDS011;40968;52.342;5.528;2023-07-31T10:11:41;2.95;;;1.55;;
43160;SDS011;40968;52.342;5.528;2023-07-31T10:14:29;4.15;;;1.55;;
43160;SDS011;40968;52.342;5.528;2023-07-31T10:17:02;2.92;;;1.80;;
43160;SDS011;40968;52.342;5.528;2023-07-31T10:19:36;3.20;;;1.67;;
43160;SDS011;40968;52.342;5.528;2023-07-31T10:22:19;3.08;;;1.80;;
43160;SDS011;40968;52.342;5.528;2023-07-31T10:25:00;3.72;;;1.90;;
43160;SDS011;40968;52.342;5.528;2023-07-31T10:27:45;4.60;;;1.83;;
43160;SDS011;40968;52.342;5.528;2023-07-31T10:30:18;4.13;;;2.03;;
43160;SDS011;40968;52.342;5.528;2023-07-31T10:32:49;4.22;;;2.00;;
43160;SDS011;40968;52.342;5.528;2023-07-31T10:35:27;5.15;;;2.03;;
43160;SDS011;40968;52.342;5.528;2023-07-31T10:38:11;5.20;;;1.90;;
43160;SDS011;40968;52.342;5.528;2023-07-31T10:40:45;7.55;;;2.55;;
43160;SDS011;40968;52.342;5.528;2023-07-31T10:43:47;3.95;;;1.92;;
43160;SDS011;40968;52.342;5.528;2023-07-31T10:46:22;5.32;;;2.17;;
43160;SDS011;40968;52.342;5.528;2023-07-31T10:49:03;5.05;;;2.30;;
43160;SDS011;40968;52.342;5.528;2023-07-31T10:51:37;3.70;;;2.08;;
43160;SDS011;40968;52.342;5.528;2023-07-31T10:54:15;3.60;;;2.17;;
43160;SDS011;40968;52.342;5.528;2023-07-31T10:56:49;4.10;;;2.00;;
43160;SDS011;40968;52.342;5.528;2023-07-31T10:59:19;3.20;;;2.17;;
43160;SDS011;40968;52.342;5.528;2023-07-31T11:01:50;3.13;;;1.75;;
43160;SDS011;40968;52.342;5.528;2023-07-31T11:04:21;3.83;;;1.92;;
43160;SDS011;40968;52.342;5.528;2023-07-31T11:06:55;6.35;;;2.47;;
43160;SDS011;40968;52.342;5.528;2023-07-31T11:09:24;3.08;;;1.80;;
43160;SDS011;40968;52.342;5.528;2023-07-31T11:11:53;3.55;;;2.05;;
43160;SDS011;40968;52.342;5.528;2023-07-31T11:14:22;5.45;;;2.75;;
43160;SDS011;40968;52.342;5.528;2023-07-31T11:16:49;5.85;;;2.55;;
43160;SDS011;40968;52.342;5.528;2023-07-31T11:19:20;7.45;;;2.70;;
43160;SDS011;40968;52.342;5.528;2023-07-31T11:21:47;5.30;;;2.50;;
43160;SDS011;40968;52.342;5.528;2023-07-31T11:24:14;6.38;;;3.00;;
43160;SDS011;40968;52.342;5.528;2023-07-31T11:26:47;4.32;;;1.80;;
43160;SDS011;40968;52.342;5.528;2023-07-31T11:29:15;5.90;;;2.45;;
43160;SDS011;40968;52.342;5.528;2023-07-31T11:31:43;6.85;;;2.33;;
43160;SDS011;40968;52.342;5.528;2023-07-31T11:34:10;5.82;;;2.30;;
43160;SDS011;40968;52.342;5.528;2023-07-31T11:36:36;7.38;;;2.50;;
43160;SDS011;40968;52.342;5.528;2023-07-31T11:39:06;4.70;;;2.40;;
43160;SDS011;40968;52.342;5.528;2023-07-31T11:41:35;6.75;;;2.20;;
43160;SDS011;40968;52.342;5.528;2023-07-31T11:44:01;4.90;;;2.53;;
43160;SDS011;40968;52.342;5.528;2023-07-31T11:46:29;5.30;;;2.78;;
43160;SDS011;40968;52.342;5.528;2023-07-31T11:49:00;6.47;;;2.60;;
43160;SDS011;40968;52.342;5.528;2023-07-31T11:51:27;4.25;;;1.92;;
43160;SDS011;40968;52.342;5.528;2023-07-31T11:53:56;14.30;;;2.95;;
43160;SDS011;40968;52.342;5.528;2023-07-31T11:56:25;6.65;;;3.08;;
43160;SDS011;40968;52.342;5.528;2023-07-31T11:58:53;7.65;;;3.45;;
43160;SDS011;40968;52.342;5.528;2023-07-31T12:01:21;8.20;;;2.97;;
43160;SDS011;40968;52.342;5.528;2023-07-31T12:03:51;6.90;;;3.10;;
43160;SDS011;40968;52.342;5.528;2023-07-31T12:06:19;11.43;;;3.90;;
43160;SDS011;40968;52.342;5.528;2023-07-31T12:08:47;6.57;;;3.83;;
43160;SDS011;40968;52.342;5.528;2023-07-31T12:11:14;6.10;;;2.67;;
43160;SDS011;40968;52.342;5.528;2023-07-31T12:13:43;7.70;;;3.40;;
43160;SDS011;40968;52.342;5.528;2023-07-31T12:16:09;12.90;;;3.00;;
43160;SDS011;40968;52.342;5.528;2023-07-31T12:18:37;12.43;;;3.33;;
43160;SDS011;40968;52.342;5.528;2023-07-31T12:21:05;11.00;;;2.90;;
43160;SDS011;40968;52.342;5.528;2023-07-31T12:23:35;6.65;;;3.13;;
43160;SDS011;40968;52.342;5.528;2023-07-31T12:26:03;12.32;;;3.63;;
43160;SDS011;40968;52.342;5.528;2023-07-31T12:28:34;7.88;;;2.88;;
43160;SDS011;40968;52.342;5.528;2023-07-31T12:31:02;8.38;;;3.47;;
43160;SDS011;40968;52.342;5.528;2023-07-31T12:33:30;8.65;;;3.35;;
43160;SDS011;40968;52.342;5.528;2023-07-31T12:36:00;6.38;;;3.42;;
43160;SDS011;40968;52.342;5.528;2023-07-31T12:38:27;7.65;;;3.30;;
43160;SDS011;40968;52.342;5.528;2023-07-31T12:40:55;7.38;;;3.25;;
43160;SDS011;40968;52.342;5.528;2023-07-31T12:43:23;8.93;;;3.00;;
43160;SDS011;40968;52.342;5.528;2023-07-31T12:45:49;5.88;;;2.47;;
43160;SDS011;40968;52.342;5.528;2023-07-31T12:48:16;10.20;;;2.75;;
43160;SDS011;40968;52.342;5.528;2023-07-31T12:50:43;10.55;;;3.25;;
43160;SDS011;40968;52.342;5.528;2023-07-31T12:53:09;11.65;;;3.58;;
43160;SDS011;40968;52.342;5.528;2023-07-31T12:55:36;9.23;;;3.28;;
43160;SDS011;40968;52.342;5.528;2023-07-31T12:58:04;8.80;;;2.90;;
43160;SDS011;40968;52.342;5.528;2023-07-31T13:00:31;7.15;;;2.78;;
43160;SDS011;40968;52.342;5.528;2023-07-31T13:02:58;9.00;;;3.05;;
43160;SDS011;40968;52.342;5.528;2023-07-31T13:05:25;11.68;;;3.53;;
43160;SDS011;40968;52.342;5.528;2023-07-31T13:07:52;8.77;;;3.42;;
43160;SDS011;40968;52.342;5.528;2023-07-31T13:10:19;13.65;;;3.63;;
43160;SDS011;40968;52.342;5.528;2023-07-31T13:12:46;8.27;;;3.55;;
43160;SDS011;40968;52.342;5.528;2023-07-31T13:15:14;6.47;;;3.50;;
43160;SDS011;40968;52.342;5.528;2023-07-31T13:17:41;10.00;;;3.22;;
43160;SDS011;40968;52.342;5.528;2023-07-31T13:20:08;12.23;;;3.90;;
43160;SDS011;40968;52.342;5.528;2023-07-31T13:22:35;14.38;;;3.70;;
43160;SDS011;40968;52.342;5.528;2023-07-31T13:25:02;10.13;;;3.45;;
43160;SDS011;40968;52.342;5.528;2023-07-31T13:27:30;11.75;;;4.22;;
43160;SDS011;40968;52.342;5.528;2023-07-31T13:29:56;9.98;;;3.75;;
43160;SDS011;40968;52.342;5.528;2023-07-31T13:32:25;8.98;;;3.85;;
43160;SDS011;40968;52.342;5.528;2023-07-31T13:34:51;11.25;;;4.88;;
43160;SDS011;40968;52.342;5.528;2023-07-31T13:37:18;9.23;;;3.80;;
43160;SDS011;40968;52.342;5.528;2023-07-31T13:39:45;11.02;;;4.53;;
43160;SDS011;40968;52.342;5.528;2023-07-31T13:42:11;9.57;;;3.83;;
43160;SDS011;40968;52.342;5.528;2023-07-31T13:44:38;10.13;;;4.13;;
43160;SDS011;40968;52.342;5.528;2023-07-31T13:47:05;7.53;;;3.90;;
43160;SDS011;40968;52.342;5.528;2023-07-31T13:49:34;9.32;;;3.55;;
43160;SDS011;40968;52.342;5.528;2023-07-31T13:52:01;13.25;;;4.20;;
43160;SDS011;40968;52.342;5.528;2023-07-31T13:54:28;13.40;;;4.35;;
43160;SDS011;40968;52.342;5.528;2023-07-31T13:56:55;9.07;;;4.05;;
43160;SDS011;40968;52.342;5.528;2023-07-31T13:59:22;9.07;;;3.65;;
43160;SDS011;40968;52.342;5.528;2023-07-31T14:01:49;9.18;;;3.75;;
43160;SDS011;40968;52.342;5.528;2023-07-31T14:04:16;9.23;;;4.20;;
43160;SDS011;40968;52.342;5.528;2023-07-31T14:06:44;7.68;;;3.88;;
43160;SDS011;40968;52.342;5.528;2023-07-31T14:09:13;11.30;;;3.90;;
43160;SDS011;40968;52.342;5.528;2023-07-31T14:11:39;11.52;;;4.38;;
43160;SDS011;40968;52.342;5.528;2023-07-31T14:14:06;9.48;;;4.13;;
43160;SDS011;40968;52.342;5.528;2023-07-31T14:16:32;15.27;;;4.55;;
43160;SDS011;40968;52.342;5.528;2023-07-31T14:18:59;13.55;;;4.93;;
43160;SDS011;40968;52.342;5.528;2023-07-31T14:21:26;16.55;;;5.18;;
43160;SDS011;40968;52.342;5.528;2023-07-31T14:23:54;9.38;;;4.75;;
43160;SDS011;40968;52.342;5.528;2023-07-31T14:26:20;16.98;;;5.30;;
43160;SDS011;40968;52.342;5.528;2023-07-31T14:28:47;11.70;;;4.93;;
43160;SDS011;40968;52.342;5.528;2023-07-31T14:31:14;9.98;;;4.40;;
43160;SDS011;40968;52.342;5.528;2023-07-31T14:33:41;11.43;;;4.20;;
43160;SDS011;40968;52.342;5.528;2023-07-31T14:36:07;9.73;;;4.88;;
43160;SDS011;40968;52.342;5.528;2023-07-31T14:38:34;11.10;;;4.75;;
43160;SDS011;40968;52.342;5.528;2023-07-31T14:41:02;11.23;;;4.40;;
43160;SDS011;40968;52.342;5.528;2023-07-31T14:43:29;7.63;;;3.28;;
43160;SDS011;40968;52.342;5.528;2023-07-31T14:45:56;6.10;;;3.55;;
43160;SDS011;40968;52.342;5.528;2023-07-31T14:48:24;6.28;;;3.25;;
43160;SDS011;40968;52.342;5.528;2023-07-31T14:50:51;5.22;;;3.10;;